Burson, California
Current Conditions -  °F | °C
As of 4:15 PM on Wednesday 22 Oct 2014 (Local Time) from KO22 Reporting Station
Clear Clear  
Wind Chill: 72°   Ceiling: Unl
Heat Index: 72°   Visibility: 10mi
Dew Point: 34°   Wind: 5mph
Humidity: 25%   Direction: 210°SSW
Pressure: 30.03"   Gusts: NA
Location:  38.2°N, 120.89°W
Report Text: KO22 222315Z AUTO 21004KT 10SM CLR 22/01 A3003 RMK AO1
Loading
Personal Weather Stations






























Interactive Weather Map
Tropical Storm Tracking
New forecast layout! Learn more

10-Day Weather Forecast

Advertisements
Track Severe Weather on mobile